sensor_id;sensor_type;location;lat;lon;timestamp;P1;durP1;ratioP1;P2;durP2;ratioP2
23370;SDS011;11858;51.056;3.712;2023-02-08T00:00:47;45.90;;;24.60;;
23370;SDS011;11858;51.056;3.712;2023-02-08T00:03:13;39.33;;;23.33;;
23370;SDS011;11858;51.056;3.712;2023-02-08T00:05:40;39.40;;;23.77;;
23370;SDS011;11858;51.056;3.712;2023-02-08T00:08:06;40.78;;;23.98;;
23370;SDS011;11858;51.056;3.712;2023-02-08T00:10:32;41.40;;;23.52;;
23370;SDS011;11858;51.056;3.712;2023-02-08T00:12:58;42.13;;;24.65;;
23370;SDS011;11858;51.056;3.712;2023-02-08T00:15:23;45.72;;;24.45;;
23370;SDS011;11858;51.056;3.712;2023-02-08T00:17:49;42.20;;;23.50;;
23370;SDS011;11858;51.056;3.712;2023-02-08T00:20:15;40.85;;;23.30;;
23370;SDS011;11858;51.056;3.712;2023-02-08T00:22:41;39.13;;;23.40;;
23370;SDS011;11858;51.056;3.712;2023-02-08T00:25:07;42.08;;;23.55;;
23370;SDS011;11858;51.056;3.712;2023-02-08T00:27:34;38.13;;;22.45;;
23370;SDS011;11858;51.056;3.712;2023-02-08T00:30:00;43.53;;;23.52;;
23370;SDS011;11858;51.056;3.712;2023-02-08T00:32:25;37.83;;;23.23;;
23370;SDS011;11858;51.056;3.712;2023-02-08T00:34:51;42.03;;;23.30;;
23370;SDS011;11858;51.056;3.712;2023-02-08T00:37:17;40.65;;;23.42;;
23370;SDS011;11858;51.056;3.712;2023-02-08T00:39:42;41.65;;;24.00;;
23370;SDS011;11858;51.056;3.712;2023-02-08T00:42:08;39.72;;;23.85;;
23370;SDS011;11858;51.056;3.712;2023-02-08T00:44:34;44.47;;;23.35;;
23370;SDS011;11858;51.056;3.712;2023-02-08T00:47:00;45.13;;;24.48;;
23370;SDS011;11858;51.056;3.712;2023-02-08T00:49:25;39.13;;;23.48;;
23370;SDS011;11858;51.056;3.712;2023-02-08T00:51:51;42.15;;;25.20;;
23370;SDS011;11858;51.056;3.712;2023-02-08T00:54:17;46.60;;;25.15;;
23370;SDS011;11858;51.056;3.712;2023-02-08T00:56:44;46.15;;;24.30;;
23370;SDS011;11858;51.056;3.712;2023-02-08T00:59:11;42.53;;;25.10;;
23370;SDS011;11858;51.056;3.712;2023-02-08T01:01:37;42.28;;;25.10;;
23370;SDS011;11858;51.056;3.712;2023-02-08T01:04:04;44.78;;;24.13;;
23370;SDS011;11858;51.056;3.712;2023-02-08T01:06:30;40.97;;;23.70;;
23370;SDS011;11858;51.056;3.712;2023-02-08T01:08:56;44.53;;;24.83;;
23370;SDS011;11858;51.056;3.712;2023-02-08T01:11:22;41.72;;;22.77;;
23370;SDS011;11858;51.056;3.712;2023-02-08T01:13:50;42.42;;;24.08;;
23370;SDS011;11858;51.056;3.712;2023-02-08T01:16:22;42.15;;;23.17;;
23370;SDS011;11858;51.056;3.712;2023-02-08T01:18:50;44.08;;;24.50;;
23370;SDS011;11858;51.056;3.712;2023-02-08T01:21:18;42.53;;;25.58;;
23370;SDS011;11858;51.056;3.712;2023-02-08T01:23:45;41.22;;;23.35;;
23370;SDS011;11858;51.056;3.712;2023-02-08T01:26:12;45.35;;;23.60;;
23370;SDS011;11858;51.056;3.712;2023-02-08T01:28:39;46.05;;;23.50;;
23370;SDS011;11858;51.056;3.712;2023-02-08T01:31:06;45.08;;;24.60;;
23370;SDS011;11858;51.056;3.712;2023-02-08T01:33:33;40.95;;;24.65;;
23370;SDS011;11858;51.056;3.712;2023-02-08T01:35:59;40.03;;;22.83;;
23370;SDS011;11858;51.056;3.712;2023-02-08T01:38:25;42.22;;;23.65;;
23370;SDS011;11858;51.056;3.712;2023-02-08T01:40:50;38.97;;;23.45;;
23370;SDS011;11858;51.056;3.712;2023-02-08T01:43:21;42.60;;;22.42;;
23370;SDS011;11858;51.056;3.712;2023-02-08T01:45:54;43.05;;;23.25;;
23370;SDS011;11858;51.056;3.712;2023-02-08T01:48:53;39.40;;;22.55;;
23370;SDS011;11858;51.056;3.712;2023-02-08T01:51:17;39.17;;;22.00;;
23370;SDS011;11858;51.056;3.712;2023-02-08T01:53:46;38.70;;;22.00;;
23370;SDS011;11858;51.056;3.712;2023-02-08T01:56:18;36.78;;;22.88;;
23370;SDS011;11858;51.056;3.712;2023-02-08T01:58:50;38.15;;;22.23;;
23370;SDS011;11858;51.056;3.712;2023-02-08T02:01:17;40.13;;;22.90;;
23370;SDS011;11858;51.056;3.712;2023-02-08T02:03:43;35.80;;;22.52;;
23370;SDS011;11858;51.056;3.712;2023-02-08T02:06:14;39.60;;;22.35;;
23370;SDS011;11858;51.056;3.712;2023-02-08T02:11:34;39.95;;;22.77;;
23370;SDS011;11858;51.056;3.712;2023-02-08T02:13:59;40.70;;;22.48;;
23370;SDS011;11858;51.056;3.712;2023-02-08T02:16:26;38.63;;;23.30;;
23370;SDS011;11858;51.056;3.712;2023-02-08T02:18:52;39.30;;;21.70;;
23370;SDS011;11858;51.056;3.712;2023-02-08T02:40:43;44.28;;;24.27;;
23370;SDS011;11858;51.056;3.712;2023-02-08T02:46:20;39.10;;;23.33;;
23370;SDS011;11858;51.056;3.712;2023-02-08T02:48:59;42.95;;;23.35;;
23370;SDS011;11858;51.056;3.712;2023-02-08T02:51:50;41.90;;;23.15;;
23370;SDS011;11858;51.056;3.712;2023-02-08T02:57:17;40.28;;;23.27;;
23370;SDS011;11858;51.056;3.712;2023-02-08T02:59:48;37.97;;;23.02;;
23370;SDS011;11858;51.056;3.712;2023-02-08T03:02:14;42.88;;;23.60;;
23370;SDS011;11858;51.056;3.712;2023-02-08T03:18:03;45.40;;;24.73;;
23370;SDS011;11858;51.056;3.712;2023-02-08T03:23:20;41.25;;;23.90;;
23370;SDS011;11858;51.056;3.712;2023-02-08T03:36:48;40.25;;;23.73;;
23370;SDS011;11858;51.056;3.712;2023-02-08T03:39:26;47.20;;;25.02;;
23370;SDS011;11858;51.056;3.712;2023-02-08T03:41:58;40.92;;;24.52;;
23370;SDS011;11858;51.056;3.712;2023-02-08T03:44:29;43.67;;;24.75;;
23370;SDS011;11858;51.056;3.712;2023-02-08T03:47:17;46.85;;;25.42;;
23370;SDS011;11858;51.056;3.712;2023-02-08T03:49:47;41.50;;;24.38;;
23370;SDS011;11858;51.056;3.712;2023-02-08T03:52:16;43.65;;;24.08;;
23370;SDS011;11858;51.056;3.712;2023-02-08T03:54:45;42.20;;;24.92;;
23370;SDS011;11858;51.056;3.712;2023-02-08T03:57:25;42.25;;;24.17;;
23370;SDS011;11858;51.056;3.712;2023-02-08T04:00:01;44.85;;;25.73;;
23370;SDS011;11858;51.056;3.712;2023-02-08T04:02:33;47.67;;;26.98;;
23370;SDS011;11858;51.056;3.712;2023-02-08T04:05:04;45.05;;;25.63;;
23370;SDS011;11858;51.056;3.712;2023-02-08T04:07:31;41.95;;;26.48;;
23370;SDS011;11858;51.056;3.712;2023-02-08T04:09:57;44.65;;;26.13;;
23370;SDS011;11858;51.056;3.712;2023-02-08T04:12:23;48.53;;;27.75;;
23370;SDS011;11858;51.056;3.712;2023-02-08T04:14:51;46.05;;;27.13;;
23370;SDS011;11858;51.056;3.712;2023-02-08T04:17:17;47.25;;;26.80;;
23370;SDS011;11858;51.056;3.712;2023-02-08T04:19:43;54.58;;;27.38;;
23370;SDS011;11858;51.056;3.712;2023-02-08T04:22:08;45.45;;;26.95;;
23370;SDS011;11858;51.056;3.712;2023-02-08T04:24:34;48.42;;;27.50;;
23370;SDS011;11858;51.056;3.712;2023-02-08T04:27:00;49.95;;;27.20;;
23370;SDS011;11858;51.056;3.712;2023-02-08T04:29:26;47.30;;;27.33;;
23370;SDS011;11858;51.056;3.712;2023-02-08T04:31:51;51.13;;;27.95;;
23370;SDS011;11858;51.056;3.712;2023-02-08T04:34:17;50.28;;;28.52;;
23370;SDS011;11858;51.056;3.712;2023-02-08T04:36:43;50.83;;;28.52;;
23370;SDS011;11858;51.056;3.712;2023-02-08T04:39:08;57.85;;;29.85;;
23370;SDS011;11858;51.056;3.712;2023-02-08T04:41:34;52.03;;;29.08;;
23370;SDS011;11858;51.056;3.712;2023-02-08T04:44:00;50.42;;;27.83;;
23370;SDS011;11858;51.056;3.712;2023-02-08T04:46:25;55.25;;;30.00;;
23370;SDS011;11858;51.056;3.712;2023-02-08T04:48:51;52.75;;;29.02;;
23370;SDS011;11858;51.056;3.712;2023-02-08T04:51:17;54.40;;;28.95;;
23370;SDS011;11858;51.056;3.712;2023-02-08T04:53:42;55.13;;;29.48;;
23370;SDS011;11858;51.056;3.712;2023-02-08T04:56:08;53.90;;;27.75;;
23370;SDS011;11858;51.056;3.712;2023-02-08T04:58:34;57.20;;;29.92;;
23370;SDS011;11858;51.056;3.712;2023-02-08T05:01:04;53.33;;;28.67;;
23370;SDS011;11858;51.056;3.712;2023-02-08T05:03:31;50.28;;;28.50;;
23370;SDS011;11858;51.056;3.712;2023-02-08T05:05:57;56.17;;;30.45;;
23370;SDS011;11858;51.056;3.712;2023-02-08T05:08:24;54.42;;;30.55;;
23370;SDS011;11858;51.056;3.712;2023-02-08T05:10:50;56.25;;;29.73;;
23370;SDS011;11858;51.056;3.712;2023-02-08T05:13:16;54.28;;;28.55;;
23370;SDS011;11858;51.056;3.712;2023-02-08T05:15:41;53.80;;;30.10;;
23370;SDS011;11858;51.056;3.712;2023-02-08T05:18:07;57.70;;;29.95;;
23370;SDS011;11858;51.056;3.712;2023-02-08T05:20:33;56.10;;;31.85;;
23370;SDS011;11858;51.056;3.712;2023-02-08T05:22:58;58.25;;;31.17;;
23370;SDS011;11858;51.056;3.712;2023-02-08T05:25:24;54.88;;;30.60;;
23370;SDS011;11858;51.056;3.712;2023-02-08T05:27:50;56.63;;;31.60;;
23370;SDS011;11858;51.056;3.712;2023-02-08T05:30:16;61.47;;;30.77;;
23370;SDS011;11858;51.056;3.712;2023-02-08T05:32:41;58.85;;;31.23;;
23370;SDS011;11858;51.056;3.712;2023-02-08T05:35:07;62.90;;;31.55;;
23370;SDS011;11858;51.056;3.712;2023-02-08T05:37:33;49.80;;;29.35;;
23370;SDS011;11858;51.056;3.712;2023-02-08T05:40:00;58.75;;;30.60;;
23370;SDS011;11858;51.056;3.712;2023-02-08T05:42:26;60.22;;;31.92;;
23370;SDS011;11858;51.056;3.712;2023-02-08T05:44:51;58.00;;;32.05;;
23370;SDS011;11858;51.056;3.712;2023-02-08T05:47:17;57.05;;;31.13;;
23370;SDS011;11858;51.056;3.712;2023-02-08T05:49:43;64.35;;;32.70;;
23370;SDS011;11858;51.056;3.712;2023-02-08T05:52:09;58.17;;;31.30;;
23370;SDS011;11858;51.056;3.712;2023-02-08T05:54:34;62.85;;;33.08;;
23370;SDS011;11858;51.056;3.712;2023-02-08T05:57:00;62.60;;;32.67;;
23370;SDS011;11858;51.056;3.712;2023-02-08T05:59:26;60.03;;;32.30;;
23370;SDS011;11858;51.056;3.712;2023-02-08T06:01:51;56.97;;;32.00;;
23370;SDS011;11858;51.056;3.712;2023-02-08T06:04:17;59.78;;;32.08;;
23370;SDS011;11858;51.056;3.712;2023-02-08T06:06:43;62.42;;;31.52;;
23370;SDS011;11858;51.056;3.712;2023-02-08T06:09:08;60.15;;;32.35;;
23370;SDS011;11858;51.056;3.712;2023-02-08T06:11:34;59.05;;;31.08;;
23370;SDS011;11858;51.056;3.712;2023-02-08T06:14:00;65.63;;;33.05;;
23370;SDS011;11858;51.056;3.712;2023-02-08T06:16:27;56.00;;;31.80;;
23370;SDS011;11858;51.056;3.712;2023-02-08T06:18:53;56.55;;;31.40;;
23370;SDS011;11858;51.056;3.712;2023-02-08T06:21:18;61.97;;;34.28;;
23370;SDS011;11858;51.056;3.712;2023-02-08T06:23:44;65.70;;;33.47;;
23370;SDS011;11858;51.056;3.712;2023-02-08T06:26:10;62.30;;;32.58;;
23370;SDS011;11858;51.056;3.712;2023-02-08T06:28:35;63.58;;;33.70;;
23370;SDS011;11858;51.056;3.712;2023-02-08T06:31:01;63.58;;;33.65;;
23370;SDS011;11858;51.056;3.712;2023-02-08T06:33:27;66.18;;;36.05;;
23370;SDS011;11858;51.056;3.712;2023-02-08T06:35:53;65.38;;;36.13;;
23370;SDS011;11858;51.056;3.712;2023-02-08T06:38:19;70.75;;;36.53;;
23370;SDS011;11858;51.056;3.712;2023-02-08T06:40:45;63.83;;;33.88;;
23370;SDS011;11858;51.056;3.712;2023-02-08T06:43:12;63.80;;;34.25;;
23370;SDS011;11858;51.056;3.712;2023-02-08T06:45:38;69.25;;;36.35;;
23370;SDS011;11858;51.056;3.712;2023-02-08T06:48:04;65.45;;;36.05;;
23370;SDS011;11858;51.056;3.712;2023-02-08T06:50:30;70.13;;;36.80;;
23370;SDS011;11858;51.056;3.712;2023-02-08T06:52:56;65.93;;;34.97;;
23370;SDS011;11858;51.056;3.712;2023-02-08T06:55:22;69.13;;;36.80;;
23370;SDS011;11858;51.056;3.712;2023-02-08T06:57:47;70.00;;;36.67;;
23370;SDS011;11858;51.056;3.712;2023-02-08T07:00:13;72.53;;;37.30;;
23370;SDS011;11858;51.056;3.712;2023-02-08T07:02:46;64.57;;;35.53;;
23370;SDS011;11858;51.056;3.712;2023-02-08T07:05:12;69.03;;;35.75;;
23370;SDS011;11858;51.056;3.712;2023-02-08T07:07:38;69.60;;;36.45;;
23370;SDS011;11858;51.056;3.712;2023-02-08T07:10:04;69.13;;;36.22;;
23370;SDS011;11858;51.056;3.712;2023-02-08T07:12:33;68.18;;;35.88;;
23370;SDS011;11858;51.056;3.712;2023-02-08T07:15:00;67.25;;;36.00;;
23370;SDS011;11858;51.056;3.712;2023-02-08T07:17:25;66.70;;;34.97;;
23370;SDS011;11858;51.056;3.712;2023-02-08T07:19:51;68.05;;;35.47;;
23370;SDS011;11858;51.056;3.712;2023-02-08T07:22:17;71.40;;;36.47;;
23370;SDS011;11858;51.056;3.712;2023-02-08T07:24:42;76.75;;;38.17;;
23370;SDS011;11858;51.056;3.712;2023-02-08T07:27:09;67.22;;;35.58;;
23370;SDS011;11858;51.056;3.712;2023-02-08T07:29:37;66.47;;;36.10;;
23370;SDS011;11858;51.056;3.712;2023-02-08T07:32:03;69.93;;;35.30;;
23370;SDS011;11858;51.056;3.712;2023-02-08T07:34:31;67.07;;;35.25;;
23370;SDS011;11858;51.056;3.712;2023-02-08T07:36:58;73.10;;;35.65;;
23370;SDS011;11858;51.056;3.712;2023-02-08T07:39:24;69.97;;;36.20;;
23370;SDS011;11858;51.056;3.712;2023-02-08T07:41:50;72.50;;;34.50;;
23370;SDS011;11858;51.056;3.712;2023-02-08T07:44:16;67.68;;;34.15;;
23370;SDS011;11858;51.056;3.712;2023-02-08T07:46:42;61.00;;;34.05;;
23370;SDS011;11858;51.056;3.712;2023-02-08T07:49:07;66.32;;;34.67;;
23370;SDS011;11858;51.056;3.712;2023-02-08T07:51:34;66.38;;;33.33;;
23370;SDS011;11858;51.056;3.712;2023-02-08T07:54:00;60.42;;;32.95;;
23370;SDS011;11858;51.056;3.712;2023-02-08T07:56:26;64.88;;;34.67;;
23370;SDS011;11858;51.056;3.712;2023-02-08T07:58:52;59.92;;;33.30;;
23370;SDS011;11858;51.056;3.712;2023-02-08T08:01:18;61.38;;;32.78;;
23370;SDS011;11858;51.056;3.712;2023-02-08T08:03:43;61.75;;;32.45;;
23370;SDS011;11858;51.056;3.712;2023-02-08T08:06:09;60.47;;;31.40;;
23370;SDS011;11858;51.056;3.712;2023-02-08T08:08:35;62.72;;;33.15;;
23370;SDS011;11858;51.056;3.712;2023-02-08T08:11:00;58.92;;;32.35;;
23370;SDS011;11858;51.056;3.712;2023-02-08T08:13:26;56.78;;;32.50;;
23370;SDS011;11858;51.056;3.712;2023-02-08T08:15:52;65.22;;;31.05;;
23370;SDS011;11858;51.056;3.712;2023-02-08T08:18:17;59.35;;;32.45;;
23370;SDS011;11858;51.056;3.712;2023-02-08T08:20:43;61.45;;;31.17;;
23370;SDS011;11858;51.056;3.712;2023-02-08T08:23:09;57.83;;;30.70;;
23370;SDS011;11858;51.056;3.712;2023-02-08T08:25:35;57.33;;;30.75;;
23370;SDS011;11858;51.056;3.712;2023-02-08T08:28:02;54.92;;;30.17;;
23370;SDS011;11858;51.056;3.712;2023-02-08T08:30:28;53.38;;;29.20;;
23370;SDS011;11858;51.056;3.712;2023-02-08T08:32:54;60.88;;;30.35;;
23370;SDS011;11858;51.056;3.712;2023-02-08T08:35:19;61.67;;;30.85;;
23370;SDS011;11858;51.056;3.712;2023-02-08T08:37:45;55.97;;;28.95;;
23370;SDS011;11858;51.056;3.712;2023-02-08T08:40:11;57.38;;;29.75;;
23370;SDS011;11858;51.056;3.712;2023-02-08T08:42:37;57.95;;;30.45;;
23370;SDS011;11858;51.056;3.712;2023-02-08T08:45:06;59.78;;;28.65;;
23370;SDS011;11858;51.056;3.712;2023-02-08T08:47:33;54.67;;;29.02;;
23370;SDS011;11858;51.056;3.712;2023-02-08T08:49:58;59.63;;;29.08;;
23370;SDS011;11858;51.056;3.712;2023-02-08T08:52:24;65.65;;;30.70;;
23370;SDS011;11858;51.056;3.712;2023-02-08T08:54:50;61.90;;;31.00;;
23370;SDS011;11858;51.056;3.712;2023-02-08T08:57:15;55.33;;;29.70;;
23370;SDS011;11858;51.056;3.712;2023-02-08T08:59:41;61.63;;;30.20;;
23370;SDS011;11858;51.056;3.712;2023-02-08T09:02:09;58.83;;;31.02;;
23370;SDS011;11858;51.056;3.712;2023-02-08T09:04:36;59.90;;;31.35;;
23370;SDS011;11858;51.056;3.712;2023-02-08T09:07:05;49.50;;;29.45;;
23370;SDS011;11858;51.056;3.712;2023-02-08T09:09:31;44.97;;;26.48;;
23370;SDS011;11858;51.056;3.712;2023-02-08T09:11:56;46.63;;;25.17;;
23370;SDS011;11858;51.056;3.712;2023-02-08T09:14:22;41.15;;;24.27;;
23370;SDS011;11858;51.056;3.712;2023-02-08T09:16:48;41.85;;;28.33;;
23370;SDS011;11858;51.056;3.712;2023-02-08T09:19:14;40.47;;;28.60;;
23370;SDS011;11858;51.056;3.712;2023-02-08T09:21:40;40.88;;;28.85;;
23370;SDS011;11858;51.056;3.712;2023-02-08T09:24:07;37.60;;;28.33;;
23370;SDS011;11858;51.056;3.712;2023-02-08T09:26:33;42.25;;;31.17;;
23370;SDS011;11858;51.056;3.712;2023-02-08T09:28:59;36.17;;;30.42;;
23370;SDS011;11858;51.056;3.712;2023-02-08T09:31:26;37.67;;;29.63;;
23370;SDS011;11858;51.056;3.712;2023-02-08T09:33:54;38.75;;;30.55;;
23370;SDS011;11858;51.056;3.712;2023-02-08T09:36:21;35.53;;;31.85;;
23370;SDS011;11858;51.056;3.712;2023-02-08T09:38:49;33.05;;;29.48;;
23370;SDS011;11858;51.056;3.712;2023-02-08T09:41:22;35.50;;;30.33;;
23370;SDS011;11858;51.056;3.712;2023-02-08T09:46:39;38.65;;;32.08;;
23370;SDS011;11858;51.056;3.712;2023-02-08T09:49:15;38.50;;;32.38;;
23370;SDS011;11858;51.056;3.712;2023-02-08T09:51:51;39.17;;;33.75;;
23370;SDS011;11858;51.056;3.712;2023-02-08T09:54:24;36.85;;;31.55;;
23370;SDS011;11858;51.056;3.712;2023-02-08T09:57:12;38.15;;;31.55;;
23370;SDS011;11858;51.056;3.712;2023-02-08T09:59:48;39.60;;;33.58;;
23370;SDS011;11858;51.056;3.712;2023-02-08T10:02:24;35.67;;;31.30;;
23370;SDS011;11858;51.056;3.712;2023-02-08T10:05:06;35.80;;;31.75;;
23370;SDS011;11858;51.056;3.712;2023-02-08T10:07:52;33.78;;;30.23;;
23370;SDS011;11858;51.056;3.712;2023-02-08T10:10:20;34.20;;;30.48;;
23370;SDS011;11858;51.056;3.712;2023-02-08T10:16:40;32.83;;;29.42;;
23370;SDS011;11858;51.056;3.712;2023-02-08T10:18:51;32.92;;;29.48;;
23370;SDS011;11858;51.056;3.712;2023-02-08T10:30:56;29.63;;;26.77;;
23370;SDS011;11858;51.056;3.712;2023-02-08T10:36:32;29.73;;;26.67;;
23370;SDS011;11858;51.056;3.712;2023-02-08T10:39:03;31.48;;;27.65;;
23370;SDS011;11858;51.056;3.712;2023-02-08T10:41:43;29.15;;;26.10;;
23370;SDS011;11858;51.056;3.712;2023-02-08T10:46:51;38.42;;;28.83;;
23370;SDS011;11858;51.056;3.712;2023-02-08T10:52:17;32.10;;;28.88;;
23370;SDS011;11858;51.056;3.712;2023-02-08T10:54:43;30.42;;;27.52;;
23370;SDS011;11858;51.056;3.712;2023-02-08T10:57:16;29.27;;;26.25;;
23370;SDS011;11858;51.056;3.712;2023-02-08T10:59:58;33.70;;;28.55;;
23370;SDS011;11858;51.056;3.712;2023-02-08T11:02:31;28.65;;;25.88;;
23370;SDS011;11858;51.056;3.712;2023-02-08T11:05:07;30.17;;;26.83;;
23370;SDS011;11858;51.056;3.712;2023-02-08T11:08:03;29.33;;;26.58;;
23370;SDS011;11858;51.056;3.712;2023-02-08T11:10:34;30.30;;;27.45;;
23370;SDS011;11858;51.056;3.712;2023-02-08T11:13:03;32.20;;;26.65;;
23370;SDS011;11858;51.056;3.712;2023-02-08T11:15:47;29.55;;;25.27;;
23370;SDS011;11858;51.056;3.712;2023-02-08T11:21:02;28.75;;;25.50;;
23370;SDS011;11858;51.056;3.712;2023-02-08T11:23:33;26.40;;;23.55;;
23370;SDS011;11858;51.056;3.712;2023-02-08T11:28:43;26.00;;;23.33;;
23370;SDS011;11858;51.056;3.712;2023-02-08T11:31:22;26.30;;;22.77;;
23370;SDS011;11858;51.056;3.712;2023-02-08T11:33:58;26.38;;;22.65;;
23370;SDS011;11858;51.056;3.712;2023-02-08T11:36:33;25.95;;;23.48;;
23370;SDS011;11858;51.056;3.712;2023-02-08T11:39:01;26.08;;;23.65;;
23370;SDS011;11858;51.056;3.712;2023-02-08T11:41:48;24.58;;;22.08;;
23370;SDS011;11858;51.056;3.712;2023-02-08T11:44:29;24.05;;;21.75;;
23370;SDS011;11858;51.056;3.712;2023-02-08T11:47:03;25.70;;;23.00;;
23370;SDS011;11858;51.056;3.712;2023-02-08T11:49:35;25.35;;;22.90;;
23370;SDS011;11858;51.056;3.712;2023-02-08T11:52:18;25.27;;;22.98;;
23370;SDS011;11858;51.056;3.712;2023-02-08T11:54:50;26.55;;;22.92;;
23370;SDS011;11858;51.056;3.712;2023-02-08T11:57:17;23.42;;;21.33;;
23370;SDS011;11858;51.056;3.712;2023-02-08T11:59:48;23.67;;;21.67;;
23370;SDS011;11858;51.056;3.712;2023-02-08T12:02:35;22.58;;;20.25;;
23370;SDS011;11858;51.056;3.712;2023-02-08T12:05:12;22.45;;;20.40;;
23370;SDS011;11858;51.056;3.712;2023-02-08T12:10:42;23.75;;;21.35;;
23370;SDS011;11858;51.056;3.712;2023-02-08T12:13:45;24.35;;;22.10;;
23370;SDS011;11858;51.056;3.712;2023-02-08T12:21:56;25.17;;;22.55;;
23370;SDS011;11858;51.056;3.712;2023-02-08T12:38:32;23.00;;;20.75;;
23370;SDS011;11858;51.056;3.712;2023-02-08T12:47:45;25.63;;;23.02;;
23370;SDS011;11858;51.056;3.712;2023-02-08T12:53:02;19.77;;;17.98;;
23370;SDS011;11858;51.056;3.712;2023-02-08T12:55:34;21.55;;;19.77;;
23370;SDS011;11858;51.056;3.712;2023-02-08T12:58:44;19.63;;;18.02;;
23370;SDS011;11858;51.056;3.712;2023-02-08T13:00:55;20.65;;;18.90;;
23370;SDS011;11858;51.056;3.712;2023-02-08T13:03:29;20.70;;;18.92;;
23370;SDS011;11858;51.056;3.712;2023-02-08T13:06:12;21.75;;;19.65;;
23370;SDS011;11858;51.056;3.712;2023-02-08T13:08:48;21.23;;;19.38;;
23370;SDS011;11858;51.056;3.712;2023-02-08T13:14:13;20.70;;;18.98;;
23370;SDS011;11858;51.056;3.712;2023-02-08T13:17:04;19.00;;;17.38;;
23370;SDS011;11858;51.056;3.712;2023-02-08T13:19:47;19.23;;;17.58;;
23370;SDS011;11858;51.056;3.712;2023-02-08T13:22:25;20.40;;;18.33;;
23370;SDS011;11858;51.056;3.712;2023-02-08T13:24:51;19.33;;;17.52;;
23370;SDS011;11858;51.056;3.712;2023-02-08T13:27:19;19.67;;;18.17;;
23370;SDS011;11858;51.056;3.712;2023-02-08T13:29:47;18.75;;;16.92;;
23370;SDS011;11858;51.056;3.712;2023-02-08T13:38:00;19.95;;;18.25;;
23370;SDS011;11858;51.056;3.712;2023-02-08T13:40:31;20.88;;;18.92;;
23370;SDS011;11858;51.056;3.712;2023-02-08T13:43:03;20.50;;;18.48;;
23370;SDS011;11858;51.056;3.712;2023-02-08T13:45:41;20.50;;;18.45;;
23370;SDS011;11858;51.056;3.712;2023-02-08T13:48:10;19.83;;;18.08;;
23370;SDS011;11858;51.056;3.712;2023-02-08T13:50:51;18.00;;;16.60;;
23370;SDS011;11858;51.056;3.712;2023-02-08T13:56:05;17.75;;;16.20;;
23370;SDS011;11858;51.056;3.712;2023-02-08T13:58:38;17.80;;;16.33;;
23370;SDS011;11858;51.056;3.712;2023-02-08T14:01:25;16.95;;;15.68;;
23370;SDS011;11858;51.056;3.712;2023-02-08T14:06:34;16.98;;;15.55;;
23370;SDS011;11858;51.056;3.712;2023-02-08T14:11:49;18.17;;;16.67;;
23370;SDS011;11858;51.056;3.712;2023-02-08T14:14:35;18.45;;;17.15;;
23370;SDS011;11858;51.056;3.712;2023-02-08T14:19:27;18.90;;;17.50;;
23370;SDS011;11858;51.056;3.712;2023-02-08T14:30:46;19.60;;;18.13;;
23370;SDS011;11858;51.056;3.712;2023-02-08T14:32:42;19.05;;;17.75;;
23370;SDS011;11858;51.056;3.712;2023-02-08T14:35:32;19.77;;;18.27;;
23370;SDS011;11858;51.056;3.712;2023-02-08T14:45:44;21.45;;;19.40;;
23370;SDS011;11858;51.056;3.712;2023-02-08T14:48:25;20.63;;;18.58;;
23370;SDS011;11858;51.056;3.712;2023-02-08T14:56:20;20.42;;;18.90;;
23370;SDS011;11858;51.056;3.712;2023-02-08T14:58:54;20.90;;;19.30;;
23370;SDS011;11858;51.056;3.712;2023-02-08T15:01:24;20.77;;;18.98;;
23370;SDS011;11858;51.056;3.712;2023-02-08T15:04:10;22.77;;;21.07;;
23370;SDS011;11858;51.056;3.712;2023-02-08T15:11:41;23.25;;;21.52;;
23370;SDS011;11858;51.056;3.712;2023-02-08T15:14:15;25.55;;;23.15;;
23370;SDS011;11858;51.056;3.712;2023-02-08T15:16:44;23.63;;;21.92;;
23370;SDS011;11858;51.056;3.712;2023-02-08T15:19:21;23.77;;;21.65;;
23370;SDS011;11858;51.056;3.712;2023-02-08T15:21:47;23.60;;;22.00;;
23370;SDS011;11858;51.056;3.712;2023-02-08T15:24:14;23.95;;;22.15;;
23370;SDS011;11858;51.056;3.712;2023-02-08T15:26:51;23.02;;;20.88;;
23370;SDS011;11858;51.056;3.712;2023-02-08T15:29:20;23.92;;;22.13;;
23370;SDS011;11858;51.056;3.712;2023-02-08T15:31:47;23.48;;;21.77;;
23370;SDS011;11858;51.056;3.712;2023-02-08T15:34:14;25.20;;;23.13;;
23370;SDS011;11858;51.056;3.712;2023-02-08T15:36:43;26.02;;;23.85;;
23370;SDS011;11858;51.056;3.712;2023-02-08T15:41:48;24.85;;;22.95;;
23370;SDS011;11858;51.056;3.712;2023-02-08T15:44:21;24.80;;;22.52;;
23370;SDS011;11858;51.056;3.712;2023-02-08T15:46:49;26.00;;;23.83;;
23370;SDS011;11858;51.056;3.712;2023-02-08T15:49:17;25.58;;;23.23;;
23370;SDS011;11858;51.056;3.712;2023-02-08T15:52:06;26.15;;;24.10;;
23370;SDS011;11858;51.056;3.712;2023-02-08T15:54:38;25.38;;;23.23;;
23370;SDS011;11858;51.056;3.712;2023-02-08T15:57:08;26.20;;;24.17;;
23370;SDS011;11858;51.056;3.712;2023-02-08T16:02:21;26.92;;;24.38;;
23370;SDS011;11858;51.056;3.712;2023-02-08T16:04:57;27.48;;;24.80;;
23370;SDS011;11858;51.056;3.712;2023-02-08T16:07:32;26.88;;;24.65;;
23370;SDS011;11858;51.056;3.712;2023-02-08T16:10:01;26.85;;;24.73;;
23370;SDS011;11858;51.056;3.712;2023-02-08T16:12:28;27.27;;;25.02;;
23370;SDS011;11858;51.056;3.712;2023-02-08T16:14:54;26.60;;;24.45;;
23370;SDS011;11858;51.056;3.712;2023-02-08T16:17:31;28.67;;;26.00;;
23370;SDS011;11858;51.056;3.712;2023-02-08T16:20:00;28.55;;;26.20;;
23370;SDS011;11858;51.056;3.712;2023-02-08T16:22:32;28.48;;;26.10;;
23370;SDS011;11858;51.056;3.712;2023-02-08T16:27:57;28.30;;;26.10;;
23370;SDS011;11858;51.056;3.712;2023-02-08T16:30:22;30.13;;;27.73;;
23370;SDS011;11858;51.056;3.712;2023-02-08T16:32:48;29.30;;;26.90;;
23370;SDS011;11858;51.056;3.712;2023-02-08T16:35:20;31.33;;;28.48;;
23370;SDS011;11858;51.056;3.712;2023-02-08T16:37:58;29.40;;;26.92;;
23370;SDS011;11858;51.056;3.712;2023-02-08T16:43:28;28.40;;;25.98;;
23370;SDS011;11858;51.056;3.712;2023-02-08T16:48:40;27.40;;;25.20;;
23370;SDS011;11858;51.056;3.712;2023-02-08T16:51:26;28.92;;;26.42;;
23370;SDS011;11858;51.056;3.712;2023-02-08T16:53:55;29.48;;;26.75;;
23370;SDS011;11858;51.056;3.712;2023-02-08T16:56:33;29.15;;;26.80;;
23370;SDS011;11858;51.056;3.712;2023-02-08T16:58:59;29.45;;;26.50;;
23370;SDS011;11858;51.056;3.712;2023-02-08T17:01:25;30.33;;;27.50;;
23370;SDS011;11858;51.056;3.712;2023-02-08T17:03:52;29.55;;;26.92;;
23370;SDS011;11858;51.056;3.712;2023-02-08T17:06:26;30.20;;;27.30;;
23370;SDS011;11858;51.056;3.712;2023-02-08T17:09:04;29.25;;;26.33;;
23370;SDS011;11858;51.056;3.712;2023-02-08T17:11:33;28.48;;;25.75;;
23370;SDS011;11858;51.056;3.712;2023-02-08T17:13:59;28.90;;;25.75;;
23370;SDS011;11858;51.056;3.712;2023-02-08T17:16:27;26.58;;;24.30;;
23370;SDS011;11858;51.056;3.712;2023-02-08T17:18:54;28.27;;;25.52;;
23370;SDS011;11858;51.056;3.712;2023-02-08T17:21:30;27.52;;;24.88;;
23370;SDS011;11858;51.056;3.712;2023-02-08T17:23:56;28.08;;;25.08;;
23370;SDS011;11858;51.056;3.712;2023-02-08T17:26:31;28.17;;;25.20;;
23370;SDS011;11858;51.056;3.712;2023-02-08T17:29:02;29.13;;;25.58;;
23370;SDS011;11858;51.056;3.712;2023-02-08T17:31:28;29.08;;;26.17;;